createdAt,value
2022-12-18T00:01:19.720Z,113.20
2022-12-18T00:06:24.513Z,126.45
2022-12-18T00:11:30.443Z,111.97
2022-12-18T00:16:37.873Z,109.63
2022-12-18T00:21:41.685Z,106.57
2022-12-18T00:26:45.684Z,100.72
2022-12-18T00:31:50.938Z,98.45
2022-12-18T00:36:54.711Z,96.43
2022-12-18T00:42:16.545Z,83.60
2022-12-18T00:47:21.563Z,99.37
2022-12-18T00:52:25.413Z,103.43
2022-12-18T00:57:29.798Z,97.80
2022-12-18T01:02:35.116Z,95.60
2022-12-18T01:07:39.637Z,92.55
2022-12-18T01:12:43.829Z,90.12
2022-12-18T01:17:49.188Z,95.65
2022-12-18T01:22:52.909Z,95.12
2022-12-18T01:27:56.759Z,95.03
2022-12-18T01:33:03.309Z,91.75
2022-12-18T01:38:07.906Z,94.20
2022-12-18T01:43:11.584Z,85.50
2022-12-18T01:48:16.948Z,77.32
2022-12-18T01:53:24.410Z,74.22
2022-12-18T01:58:41.587Z,77.07
2022-12-18T02:03:47.414Z,72.55
2022-12-18T02:09:04.692Z,76.37
2022-12-18T02:14:20.091Z,73.53
2022-12-18T02:19:50.321Z,68.78
2022-12-18T02:25:06.914Z,70.70
2022-12-18T02:30:12.867Z,47.30
2022-12-18T02:35:22.770Z,66.40
2022-12-18T02:40:30.368Z,65.90
2022-12-18T02:45:37.027Z,46.78
2022-12-18T02:50:54.202Z,61.78
2022-12-18T02:56:07.312Z,59.63
2022-12-18T03:01:20.896Z,50.85
2022-12-18T03:06:30.056Z,59.10
2022-12-18T03:11:56.183Z,52.80
2022-12-18T03:17:04.749Z,49.83
2022-12-18T03:22:09.915Z,60.42
2022-12-18T03:27:21.869Z,55.70
2022-12-18T03:32:31.526Z,55.50
2022-12-18T03:37:36.296Z,56.95
2022-12-18T03:42:47.753Z,47.13
2022-12-18T03:48:02.084Z,52.28
2022-12-18T03:53:18.915Z,54.65
2022-12-18T03:58:27.828Z,39.33
2022-12-18T04:03:36.499Z,47.85
2022-12-18T04:08:41.561Z,45.60
2022-12-18T04:13:46.596Z,45.17
2022-12-18T04:18:52.469Z,42.40
2022-12-18T04:23:56.782Z,46.97
2022-12-18T04:29:00.589Z,54.35
2022-12-18T04:34:06.449Z,42.70
2022-12-18T04:44:16.207Z,36.08
2022-12-18T04:49:21.793Z,40.53
2022-12-18T04:54:25.519Z,40.42
2022-12-18T04:59:29.415Z,38.85
2022-12-18T05:04:34.716Z,40.08
2022-12-18T05:09:38.716Z,46.33
2022-12-18T05:14:42.387Z,39.88
2022-12-18T05:19:47.425Z,38.78
2022-12-18T05:24:51.106Z,38.58
2022-12-18T05:29:54.804Z,40.60
2022-12-18T05:34:59.872Z,42.67
2022-12-18T05:40:04.451Z,42.85
2022-12-18T05:45:09.135Z,36.05
2022-12-18T05:50:14.160Z,38.45
2022-12-18T05:55:18.129Z,38.97
2022-12-18T06:00:21.927Z,39.25
2022-12-18T06:05:27.141Z,38.78
2022-12-18T06:10:30.935Z,38.30
2022-12-18T06:15:37.868Z,40.85
2022-12-18T06:20:43.143Z,42.05
2022-12-18T06:25:46.803Z,39.70
2022-12-18T06:30:51.379Z,41.72
2022-12-18T06:36:00.997Z,45.83
2022-12-18T06:41:08.838Z,38.10
2022-12-18T06:51:20.359Z,39.47
2022-12-18T06:56:24.093Z,40.22
2022-12-18T07:01:27.943Z,45.55
2022-12-18T07:06:33.287Z,35.05
2022-12-18T07:11:37.019Z,32.45
2022-12-18T07:16:41.723Z,39.90
2022-12-18T07:21:46.825Z,34.40
2022-12-18T07:26:50.896Z,37.78
2022-12-18T07:31:54.647Z,38.60
2022-12-18T07:36:59.996Z,26.60
2022-12-18T07:42:21.252Z,42.03
2022-12-18T07:47:26.184Z,38.97
2022-12-18T07:52:32.245Z,35.92
2022-12-18T07:57:56.393Z,37.03
2022-12-18T08:03:00.700Z,29.90
2022-12-18T08:08:05.919Z,34.95
2022-12-18T08:13:09.592Z,40.85
2022-12-18T08:18:14.565Z,34.80
2022-12-18T08:23:19.955Z,42.88
2022-12-18T08:28:23.777Z,36.28
2022-12-18T08:33:28.311Z,37.63
2022-12-18T08:38:33.961Z,35.03
2022-12-18T08:43:57.827Z,36.28
2022-12-18T08:49:01.780Z,34.58
2022-12-18T08:54:08.413Z,36.72
2022-12-18T08:59:17.563Z,32.00
2022-12-18T09:04:23.808Z,34.13
2022-12-18T09:09:28.967Z,39.92
2022-12-18T09:14:32.648Z,39.13
2022-12-18T09:19:36.382Z,35.65
2022-12-18T09:24:41.566Z,33.10
2022-12-18T09:29:45.375Z,34.33
2022-12-18T09:34:49.159Z,33.17
2022-12-18T09:39:54.272Z,33.45
2022-12-18T09:44:58.290Z,36.08
2022-12-18T09:50:06.223Z,42.45
2022-12-18T09:55:26.525Z,35.13
2022-12-18T10:00:30.411Z,32.55
2022-12-18T10:05:40.313Z,37.25
2022-12-18T10:10:50.761Z,32.20
2022-12-18T10:16:05.070Z,38.58
2022-12-18T10:21:15.029Z,33.55
2022-12-18T10:26:20.090Z,32.63
2022-12-18T10:31:26.561Z,32.75
2022-12-18T10:36:30.963Z,39.70
2022-12-18T10:41:36.049Z,34.28
2022-12-18T10:46:40.120Z,35.17
2022-12-18T10:51:44.221Z,40.60
2022-12-18T10:56:49.537Z,33.17
2022-12-18T11:01:56.022Z,34.45
2022-12-18T11:07:02.454Z,34.70
2022-12-18T11:12:18.639Z,33.25
2022-12-18T11:17:26.502Z,33.67
2022-12-18T11:22:32.773Z,31.95
2022-12-18T11:27:37.993Z,31.12
2022-12-18T11:32:45.359Z,34.67
2022-12-18T11:37:52.608Z,36.28
2022-12-18T11:43:06.517Z,32.90
2022-12-18T11:48:18.921Z,33.72
2022-12-18T11:53:23.143Z,37.72
2022-12-18T11:58:43.799Z,35.53
2022-12-18T12:04:07.747Z,34.30
2022-12-18T12:09:22.292Z,33.15
2022-12-18T12:14:43.990Z,35.50
2022-12-18T12:19:55.490Z,32.33
2022-12-18T12:25:09.951Z,36.03
2022-12-18T12:30:22.141Z,35.92
2022-12-18T12:35:37.278Z,33.83
2022-12-18T12:40:53.932Z,35.67
2022-12-18T12:46:07.737Z,33.95
2022-12-18T12:51:17.693Z,38.67
2022-12-18T12:56:23.427Z,39.38
2022-12-18T13:01:36.313Z,36.28
2022-12-18T13:06:48.007Z,36.83
2022-12-18T13:12:09.633Z,37.88
2022-12-18T13:17:36.490Z,34.25
2022-12-18T13:22:42.880Z,36.05
2022-12-18T13:28:06.614Z,31.75
2022-12-18T13:33:56.371Z,37.10
2022-12-18T13:39:28.901Z,43.40
2022-12-18T13:44:41.592Z,37.80
2022-12-18T13:49:48.821Z,38.35
2022-12-18T13:54:54.516Z,40.90
2022-12-18T14:00:00.287Z,37.85
2022-12-18T14:05:06.658Z,39.85
2022-12-18T14:15:43.770Z,36.30
2022-12-18T14:20:53.177Z,44.35
2022-12-18T14:26:00.773Z,41.37
2022-12-18T14:31:20.367Z,40.20
2022-12-18T14:36:27.143Z,39.47
2022-12-18T14:41:30.939Z,37.35
2022-12-18T14:46:37.042Z,39.85
2022-12-18T14:51:50.423Z,34.50
2022-12-18T14:57:00.905Z,36.95
2022-12-18T15:02:14.532Z,39.88
2022-12-18T15:07:21.854Z,39.85
2022-12-18T15:12:35.241Z,34.37
2022-12-18T15:17:39.232Z,34.83
2022-12-18T15:22:44.361Z,39.30
2022-12-18T15:27:49.197Z,40.90
2022-12-18T15:32:55.518Z,41.97
2022-12-18T15:38:00.612Z,37.75
2022-12-18T15:43:24.657Z,37.70
2022-12-18T15:48:28.500Z,42.05
2022-12-18T15:53:35.560Z,40.55
2022-12-18T15:58:39.282Z,38.40
2022-12-18T16:03:43.326Z,33.28
2022-12-18T16:08:48.887Z,36.35
2022-12-18T16:13:52.575Z,38.38
2022-12-18T16:18:56.292Z,36.47
2022-12-18T16:24:01.346Z,40.40
2022-12-18T16:29:05.061Z,34.78
2022-12-18T16:34:12.491Z,37.78
2022-12-18T16:39:17.821Z,32.63
2022-12-18T16:44:22.490Z,43.55
2022-12-18T16:49:26.182Z,37.25
2022-12-18T16:54:31.462Z,49.72
2022-12-18T16:59:35.435Z,39.05
2022-12-18T17:04:39.899Z,35.67
2022-12-18T17:09:45.091Z,39.80
2022-12-18T17:14:49.120Z,39.78
2022-12-18T17:19:53.342Z,35.70
2022-12-18T17:24:58.719Z,43.08
2022-12-18T17:30:02.436Z,40.45
2022-12-18T17:35:07.461Z,39.15
2022-12-18T17:40:13.505Z,39.88
2022-12-18T17:45:17.311Z,39.67
2022-12-18T17:50:21.185Z,36.63
2022-12-18T17:55:26.560Z,49.33
2022-12-18T18:00:30.572Z,41.90
2022-12-18T18:05:34.375Z,34.38
2022-12-18T18:10:40.490Z,39.47
2022-12-18T18:15:44.280Z,44.22
2022-12-18T18:20:48.028Z,45.10
2022-12-18T18:25:53.265Z,44.80
2022-12-18T18:30:57.567Z,39.75
2022-12-18T18:36:01.548Z,38.20
2022-12-18T18:41:07.511Z,47.28
2022-12-18T18:46:13.864Z,45.05
2022-12-18T18:51:21.734Z,43.90
2022-12-18T18:56:56.437Z,39.38
2022-12-18T19:01:52.728Z,46.08
2022-12-18T19:06:56.785Z,42.90
2022-12-18T19:12:19.902Z,40.38
2022-12-18T19:17:28.066Z,41.47
2022-12-18T19:22:33.583Z,42.50
2022-12-18T19:27:40.255Z,41.13
2022-12-18T19:32:43.984Z,46.30
2022-12-18T19:37:47.747Z,36.75
2022-12-18T19:42:52.876Z,41.25
2022-12-18T19:48:01.094Z,47.22
2022-12-18T19:53:08.531Z,52.60
2022-12-18T19:58:14.992Z,46.60
2022-12-18T20:03:28.719Z,46.92
2022-12-18T20:08:35.739Z,52.47
2022-12-18T20:13:41.068Z,52.75
2022-12-18T20:18:45.411Z,46.13
2022-12-18T20:23:49.442Z,50.55
2022-12-18T20:28:55.344Z,53.53
2022-12-18T20:34:01.598Z,58.72
2022-12-18T20:39:08.974Z,53.28
2022-12-18T20:44:23.539Z,56.70
2022-12-18T20:49:28.585Z,51.95
2022-12-18T20:54:32.358Z,59.05
2022-12-18T20:59:37.411Z,59.17
2022-12-18T21:04:41.077Z,55.35
2022-12-18T21:09:44.895Z,49.53
2022-12-18T21:14:50.109Z,58.85
2022-12-18T21:19:54.466Z,49.40
2022-12-18T21:24:58.802Z,54.85
2022-12-18T21:30:04.202Z,65.70
2022-12-18T21:35:08.780Z,69.65
2022-12-18T21:40:14.551Z,64.93
2022-12-18T21:45:19.752Z,64.62
2022-12-18T21:50:23.470Z,75.90
2022-12-18T21:55:27.334Z,65.40
2022-12-18T22:00:32.403Z,65.40
2022-12-18T22:05:36.137Z,58.28
2022-12-18T22:10:40.023Z,69.55
2022-12-18T22:15:45.228Z,65.12
2022-12-18T22:20:49.085Z,68.55
2022-12-18T22:25:52.762Z,61.90
2022-12-18T22:30:59.302Z,65.40
2022-12-18T22:36:06.604Z,63.73
2022-12-18T22:41:10.581Z,62.30
2022-12-18T22:46:17.142Z,67.03
2022-12-18T22:51:21.249Z,70.95
2022-12-18T22:56:25.394Z,66.62
2022-12-18T23:01:31.875Z,64.00
2022-12-18T23:06:41.073Z,70.03
2022-12-18T23:11:45.023Z,61.20
2022-12-18T23:16:50.790Z,71.43
2022-12-18T23:27:01.970Z,69.40
2022-12-18T23:32:09.955Z,68.62
2022-12-18T23:37:24.959Z,78.50
2022-12-18T23:42:37.480Z,83.40
2022-12-18T23:47:42.543Z,69.00
2022-12-18T23:52:46.290Z,76.68
2022-12-18T23:57:49.986Z,65.70
